sensor_id;sensor_type;location;lat;lon;timestamp;P1;durP1;ratioP1;P2;durP2;ratioP2
75894;SDS011;64573;50.328;15.014;2023-07-31T00:01:29;16.30;;;4.22;;
75894;SDS011;64573;50.328;15.014;2023-07-31T00:03:55;9.85;;;4.40;;
75894;SDS011;64573;50.328;15.014;2023-07-31T00:06:20;11.57;;;4.35;;
75894;SDS011;64573;50.328;15.014;2023-07-31T00:08:45;7.97;;;4.30;;
75894;SDS011;64573;50.328;15.014;2023-07-31T00:11:10;10.57;;;4.18;;
75894;SDS011;64573;50.328;15.014;2023-07-31T00:13:36;19.77;;;4.68;;
75894;SDS011;64573;50.328;15.014;2023-07-31T00:16:01;13.52;;;4.90;;
75894;SDS011;64573;50.328;15.014;2023-07-31T00:18:27;10.20;;;4.18;;
75894;SDS011;64573;50.328;15.014;2023-07-31T00:20:52;12.55;;;4.78;;
75894;SDS011;64573;50.328;15.014;2023-07-31T00:23:17;7.65;;;4.53;;
75894;SDS011;64573;50.328;15.014;2023-07-31T00:25:43;11.82;;;4.90;;
75894;SDS011;64573;50.328;15.014;2023-07-31T00:28:08;9.85;;;4.65;;
75894;SDS011;64573;50.328;15.014;2023-07-31T00:30:33;12.23;;;4.70;;
75894;SDS011;64573;50.328;15.014;2023-07-31T00:32:59;10.25;;;4.93;;
75894;SDS011;64573;50.328;15.014;2023-07-31T00:35:24;16.05;;;5.20;;
75894;SDS011;64573;50.328;15.014;2023-07-31T00:37:49;10.23;;;5.00;;
75894;SDS011;64573;50.328;15.014;2023-07-31T00:40:15;12.38;;;4.60;;
75894;SDS011;64573;50.328;15.014;2023-07-31T00:42:40;9.23;;;4.35;;
75894;SDS011;64573;50.328;15.014;2023-07-31T00:45:05;8.18;;;4.15;;
75894;SDS011;64573;50.328;15.014;2023-07-31T00:47:31;8.40;;;4.38;;
75894;SDS011;64573;50.328;15.014;2023-07-31T00:49:57;10.45;;;4.60;;
75894;SDS011;64573;50.328;15.014;2023-07-31T00:52:22;8.10;;;4.13;;
75894;SDS011;64573;50.328;15.014;2023-07-31T00:54:48;8.15;;;4.28;;
75894;SDS011;64573;50.328;15.014;2023-07-31T00:57:14;20.23;;;4.65;;
75894;SDS011;64573;50.328;15.014;2023-07-31T00:59:40;10.45;;;3.92;;
75894;SDS011;64573;50.328;15.014;2023-07-31T01:02:05;8.10;;;4.07;;
75894;SDS011;64573;50.328;15.014;2023-07-31T01:04:31;10.40;;;4.30;;
75894;SDS011;64573;50.328;15.014;2023-07-31T01:10:01;7.93;;;3.72;;
75894;SDS011;64573;50.328;15.014;2023-07-31T01:12:33;6.50;;;3.42;;
75894;SDS011;64573;50.328;15.014;2023-07-31T01:15:03;8.40;;;3.50;;
75894;SDS011;64573;50.328;15.014;2023-07-31T01:17:28;7.05;;;3.55;;
75894;SDS011;64573;50.328;15.014;2023-07-31T01:19:55;5.30;;;3.65;;
75894;SDS011;64573;50.328;15.014;2023-07-31T01:22:30;6.45;;;3.15;;
75894;SDS011;64573;50.328;15.014;2023-07-31T01:31:07;8.63;;;3.90;;
75894;SDS011;64573;50.328;15.014;2023-07-31T01:33:34;10.57;;;3.75;;
75894;SDS011;64573;50.328;15.014;2023-07-31T01:36:01;8.57;;;3.80;;
75894;SDS011;64573;50.328;15.014;2023-07-31T01:38:27;8.40;;;3.97;;
75894;SDS011;64573;50.328;15.014;2023-07-31T01:40:52;6.10;;;3.72;;
75894;SDS011;64573;50.328;15.014;2023-07-31T01:43:19;10.65;;;3.70;;
75894;SDS011;64573;50.328;15.014;2023-07-31T01:45:45;7.45;;;4.40;;
75894;SDS011;64573;50.328;15.014;2023-07-31T01:48:10;9.48;;;4.22;;
75894;SDS011;64573;50.328;15.014;2023-07-31T01:50:35;13.98;;;4.85;;
75894;SDS011;64573;50.328;15.014;2023-07-31T01:53:00;9.88;;;4.40;;
75894;SDS011;64573;50.328;15.014;2023-07-31T01:55:26;12.77;;;3.75;;
75894;SDS011;64573;50.328;15.014;2023-07-31T01:57:51;11.18;;;3.83;;
75894;SDS011;64573;50.328;15.014;2023-07-31T02:00:17;11.38;;;4.47;;
75894;SDS011;64573;50.328;15.014;2023-07-31T02:02:43;8.00;;;3.88;;
75894;SDS011;64573;50.328;15.014;2023-07-31T02:05:08;12.00;;;3.97;;
75894;SDS011;64573;50.328;15.014;2023-07-31T02:07:34;14.63;;;4.95;;
75894;SDS011;64573;50.328;15.014;2023-07-31T02:09:59;11.68;;;4.43;;
75894;SDS011;64573;50.328;15.014;2023-07-31T02:12:24;9.07;;;4.75;;
75894;SDS011;64573;50.328;15.014;2023-07-31T02:14:50;10.38;;;4.78;;
75894;SDS011;64573;50.328;15.014;2023-07-31T02:17:15;8.25;;;4.22;;
75894;SDS011;64573;50.328;15.014;2023-07-31T02:19:40;14.48;;;4.28;;
75894;SDS011;64573;50.328;15.014;2023-07-31T02:22:06;9.63;;;4.68;;
75894;SDS011;64573;50.328;15.014;2023-07-31T02:24:31;6.70;;;4.22;;
75894;SDS011;64573;50.328;15.014;2023-07-31T02:26:57;9.88;;;4.47;;
75894;SDS011;64573;50.328;15.014;2023-07-31T02:29:22;11.77;;;4.32;;
75894;SDS011;64573;50.328;15.014;2023-07-31T02:31:47;9.20;;;4.07;;
75894;SDS011;64573;50.328;15.014;2023-07-31T02:34:13;11.77;;;4.35;;
75894;SDS011;64573;50.328;15.014;2023-07-31T02:36:38;9.32;;;4.30;;
75894;SDS011;64573;50.328;15.014;2023-07-31T02:39:03;8.15;;;3.70;;
75894;SDS011;64573;50.328;15.014;2023-07-31T02:41:29;15.52;;;4.00;;
75894;SDS011;64573;50.328;15.014;2023-07-31T02:43:55;14.80;;;4.40;;
75894;SDS011;64573;50.328;15.014;2023-07-31T02:46:20;15.07;;;5.60;;
75894;SDS011;64573;50.328;15.014;2023-07-31T02:48:49;10.25;;;3.58;;
75894;SDS011;64573;50.328;15.014;2023-07-31T02:51:14;9.70;;;4.15;;
75894;SDS011;64573;50.328;15.014;2023-07-31T02:53:40;5.90;;;3.58;;
75894;SDS011;64573;50.328;15.014;2023-07-31T02:56:05;8.23;;;3.78;;
75894;SDS011;64573;50.328;15.014;2023-07-31T02:58:30;8.05;;;4.00;;
75894;SDS011;64573;50.328;15.014;2023-07-31T03:00:57;11.98;;;3.45;;
75894;SDS011;64573;50.328;15.014;2023-07-31T03:03:23;9.43;;;3.40;;
75894;SDS011;64573;50.328;15.014;2023-07-31T03:05:48;9.80;;;4.10;;
75894;SDS011;64573;50.328;15.014;2023-07-31T03:08:14;6.00;;;3.50;;
75894;SDS011;64573;50.328;15.014;2023-07-31T03:10:40;13.35;;;3.40;;
75894;SDS011;64573;50.328;15.014;2023-07-31T03:13:05;9.30;;;3.80;;
75894;SDS011;64573;50.328;15.014;2023-07-31T03:15:31;11.60;;;3.53;;
75894;SDS011;64573;50.328;15.014;2023-07-31T03:17:56;7.65;;;3.35;;
75894;SDS011;64573;50.328;15.014;2023-07-31T03:20:22;14.48;;;3.28;;
75894;SDS011;64573;50.328;15.014;2023-07-31T03:22:47;7.72;;;3.20;;
75894;SDS011;64573;50.328;15.014;2023-07-31T03:25:12;8.52;;;3.30;;
75894;SDS011;64573;50.328;15.014;2023-07-31T03:27:39;10.02;;;3.63;;
75894;SDS011;64573;50.328;15.014;2023-07-31T03:30:04;6.45;;;3.60;;
75894;SDS011;64573;50.328;15.014;2023-07-31T03:32:30;12.18;;;3.67;;
75894;SDS011;64573;50.328;15.014;2023-07-31T03:34:55;9.40;;;3.60;;
75894;SDS011;64573;50.328;15.014;2023-07-31T03:37:21;10.65;;;4.13;;
75894;SDS011;64573;50.328;15.014;2023-07-31T03:39:46;8.32;;;4.00;;
75894;SDS011;64573;50.328;15.014;2023-07-31T03:42:11;7.95;;;3.80;;
75894;SDS011;64573;50.328;15.014;2023-07-31T03:44:37;8.52;;;3.72;;
75894;SDS011;64573;50.328;15.014;2023-07-31T03:47:02;10.43;;;3.67;;
75894;SDS011;64573;50.328;15.014;2023-07-31T03:49:28;9.82;;;3.72;;
75894;SDS011;64573;50.328;15.014;2023-07-31T03:51:53;16.00;;;3.75;;
75894;SDS011;64573;50.328;15.014;2023-07-31T03:54:19;8.45;;;3.60;;
75894;SDS011;64573;50.328;15.014;2023-07-31T03:56:44;7.63;;;3.25;;
75894;SDS011;64573;50.328;15.014;2023-07-31T03:59:09;10.48;;;3.40;;
75894;SDS011;64573;50.328;15.014;2023-07-31T04:01:35;8.48;;;3.58;;
75894;SDS011;64573;50.328;15.014;2023-07-31T04:04:00;6.00;;;3.40;;
75894;SDS011;64573;50.328;15.014;2023-07-31T04:06:25;9.68;;;3.30;;
75894;SDS011;64573;50.328;15.014;2023-07-31T04:08:51;8.70;;;3.47;;
75894;SDS011;64573;50.328;15.014;2023-07-31T04:11:16;5.75;;;3.70;;
75894;SDS011;64573;50.328;15.014;2023-07-31T04:13:41;10.20;;;3.40;;
75894;SDS011;64573;50.328;15.014;2023-07-31T04:16:07;9.82;;;3.53;;
75894;SDS011;64573;50.328;15.014;2023-07-31T04:18:32;7.28;;;3.45;;
75894;SDS011;64573;50.328;15.014;2023-07-31T04:20:58;7.13;;;3.60;;
75894;SDS011;64573;50.328;15.014;2023-07-31T04:23:24;8.02;;;4.57;;
75894;SDS011;64573;50.328;15.014;2023-07-31T04:25:50;9.50;;;3.15;;
75894;SDS011;64573;50.328;15.014;2023-07-31T04:28:15;11.40;;;3.85;;
75894;SDS011;64573;50.328;15.014;2023-07-31T04:30:40;4.97;;;3.40;;
75894;SDS011;64573;50.328;15.014;2023-07-31T04:33:06;7.20;;;3.42;;
75894;SDS011;64573;50.328;15.014;2023-07-31T04:35:31;7.22;;;3.20;;
75894;SDS011;64573;50.328;15.014;2023-07-31T04:37:56;6.10;;;3.28;;
75894;SDS011;64573;50.328;15.014;2023-07-31T04:40:22;4.88;;;3.33;;
75894;SDS011;64573;50.328;15.014;2023-07-31T04:42:47;4.20;;;3.00;;
75894;SDS011;64573;50.328;15.014;2023-07-31T04:45:12;5.82;;;3.20;;
75894;SDS011;64573;50.328;15.014;2023-07-31T04:47:39;4.88;;;2.88;;
75894;SDS011;64573;50.328;15.014;2023-07-31T04:50:04;10.45;;;3.05;;
75894;SDS011;64573;50.328;15.014;2023-07-31T04:52:30;8.52;;;2.95;;
75894;SDS011;64573;50.328;15.014;2023-07-31T04:54:55;9.40;;;3.08;;
75894;SDS011;64573;50.328;15.014;2023-07-31T04:57:20;7.95;;;2.72;;
75894;SDS011;64573;50.328;15.014;2023-07-31T04:59:46;5.57;;;2.80;;
75894;SDS011;64573;50.328;15.014;2023-07-31T05:02:11;4.85;;;2.85;;
75894;SDS011;64573;50.328;15.014;2023-07-31T05:04:37;9.75;;;2.83;;
75894;SDS011;64573;50.328;15.014;2023-07-31T05:07:02;7.90;;;3.08;;
75894;SDS011;64573;50.328;15.014;2023-07-31T05:09:28;3.95;;;2.30;;
75894;SDS011;64573;50.328;15.014;2023-07-31T05:11:53;7.78;;;2.80;;
75894;SDS011;64573;50.328;15.014;2023-07-31T05:14:19;4.95;;;2.67;;
75894;SDS011;64573;50.328;15.014;2023-07-31T05:16:45;5.32;;;2.40;;
75894;SDS011;64573;50.328;15.014;2023-07-31T05:19:10;4.03;;;2.25;;
75894;SDS011;64573;50.328;15.014;2023-07-31T05:21:36;5.47;;;2.45;;
75894;SDS011;64573;50.328;15.014;2023-07-31T05:24:01;6.57;;;2.33;;
75894;SDS011;64573;50.328;15.014;2023-07-31T05:26:27;7.15;;;2.08;;
75894;SDS011;64573;50.328;15.014;2023-07-31T05:28:52;3.60;;;2.30;;
75894;SDS011;64573;50.328;15.014;2023-07-31T05:31:17;3.33;;;2.10;;
75894;SDS011;64573;50.328;15.014;2023-07-31T05:33:43;6.05;;;2.92;;
75894;SDS011;64573;50.328;15.014;2023-07-31T05:36:08;6.93;;;2.83;;
75894;SDS011;64573;50.328;15.014;2023-07-31T05:38:34;7.85;;;2.10;;
75894;SDS011;64573;50.328;15.014;2023-07-31T05:40:59;4.45;;;2.20;;
75894;SDS011;64573;50.328;15.014;2023-07-31T05:43:25;4.28;;;2.25;;
75894;SDS011;64573;50.328;15.014;2023-07-31T05:45:50;4.20;;;2.40;;
75894;SDS011;64573;50.328;15.014;2023-07-31T05:48:16;6.43;;;2.25;;
75894;SDS011;64573;50.328;15.014;2023-07-31T05:50:42;8.85;;;2.20;;
75894;SDS011;64573;50.328;15.014;2023-07-31T05:53:08;3.90;;;2.38;;
75894;SDS011;64573;50.328;15.014;2023-07-31T05:55:35;3.75;;;2.13;;
75894;SDS011;64573;50.328;15.014;2023-07-31T05:58:00;4.57;;;2.10;;
75894;SDS011;64573;50.328;15.014;2023-07-31T06:00:26;5.22;;;2.17;;
75894;SDS011;64573;50.328;15.014;2023-07-31T06:02:52;4.65;;;2.05;;
75894;SDS011;64573;50.328;15.014;2023-07-31T06:05:17;4.95;;;2.17;;
75894;SDS011;64573;50.328;15.014;2023-07-31T06:07:43;5.00;;;2.13;;
75894;SDS011;64573;50.328;15.014;2023-07-31T06:10:08;2.70;;;1.98;;
75894;SDS011;64573;50.328;15.014;2023-07-31T06:12:34;9.50;;;2.47;;
75894;SDS011;64573;50.328;15.014;2023-07-31T06:15:00;4.35;;;1.95;;
75894;SDS011;64573;50.328;15.014;2023-07-31T06:17:26;5.05;;;2.20;;
75894;SDS011;64573;50.328;15.014;2023-07-31T06:19:52;10.40;;;2.20;;
75894;SDS011;64573;50.328;15.014;2023-07-31T06:22:17;3.45;;;1.70;;
75894;SDS011;64573;50.328;15.014;2023-07-31T06:24:43;4.10;;;1.60;;
75894;SDS011;64573;50.328;15.014;2023-07-31T06:27:09;4.63;;;1.63;;
75894;SDS011;64573;50.328;15.014;2023-07-31T06:29:35;6.00;;;2.45;;
75894;SDS011;64573;50.328;15.014;2023-07-31T06:32:00;7.78;;;1.70;;
75894;SDS011;64573;50.328;15.014;2023-07-31T06:34:26;4.50;;;1.75;;
75894;SDS011;64573;50.328;15.014;2023-07-31T06:36:51;3.63;;;1.50;;
75894;SDS011;64573;50.328;15.014;2023-07-31T06:39:16;6.05;;;1.55;;
75894;SDS011;64573;50.328;15.014;2023-07-31T06:41:42;5.03;;;1.50;;
75894;SDS011;64573;50.328;15.014;2023-07-31T06:44:09;4.47;;;1.50;;
75894;SDS011;64573;50.328;15.014;2023-07-31T06:46:34;6.82;;;1.80;;
75894;SDS011;64573;50.328;15.014;2023-07-31T06:49:00;3.10;;;1.60;;
75894;SDS011;64573;50.328;15.014;2023-07-31T06:51:25;16.27;;;1.90;;
75894;SDS011;64573;50.328;15.014;2023-07-31T06:53:50;6.30;;;1.33;;
75894;SDS011;64573;50.328;15.014;2023-07-31T06:56:16;6.18;;;1.50;;
75894;SDS011;64573;50.328;15.014;2023-07-31T06:58:41;4.70;;;1.63;;
75894;SDS011;64573;50.328;15.014;2023-07-31T07:01:06;6.22;;;1.48;;
75894;SDS011;64573;50.328;15.014;2023-07-31T07:03:32;7.55;;;1.63;;
75894;SDS011;64573;50.328;15.014;2023-07-31T07:05:58;4.22;;;1.50;;
75894;SDS011;64573;50.328;15.014;2023-07-31T07:08:24;2.95;;;1.50;;
75894;SDS011;64573;50.328;15.014;2023-07-31T07:10:50;5.00;;;1.55;;
75894;SDS011;64573;50.328;15.014;2023-07-31T07:13:15;7.07;;;1.38;;
75894;SDS011;64573;50.328;15.014;2023-07-31T07:15:41;5.03;;;1.40;;
75894;SDS011;64573;50.328;15.014;2023-07-31T07:18:06;4.68;;;1.10;;
75894;SDS011;64573;50.328;15.014;2023-07-31T07:20:32;6.80;;;2.10;;
75894;SDS011;64573;50.328;15.014;2023-07-31T07:22:57;2.80;;;1.10;;
75894;SDS011;64573;50.328;15.014;2023-07-31T07:25:23;2.25;;;1.30;;
75894;SDS011;64573;50.328;15.014;2023-07-31T07:27:48;4.18;;;1.23;;
75894;SDS011;64573;50.328;15.014;2023-07-31T07:30:13;4.88;;;1.42;;
75894;SDS011;64573;50.328;15.014;2023-07-31T07:32:39;4.63;;;1.30;;
75894;SDS011;64573;50.328;15.014;2023-07-31T07:35:05;4.00;;;1.30;;
75894;SDS011;64573;50.328;15.014;2023-07-31T07:37:31;7.35;;;1.20;;
75894;SDS011;64573;50.328;15.014;2023-07-31T07:39:56;5.32;;;1.17;;
75894;SDS011;64573;50.328;15.014;2023-07-31T07:42:22;6.25;;;1.40;;
75894;SDS011;64573;50.328;15.014;2023-07-31T07:44:48;10.85;;;1.65;;
75894;SDS011;64573;50.328;15.014;2023-07-31T07:47:13;7.55;;;1.77;;
75894;SDS011;64573;50.328;15.014;2023-07-31T07:49:38;4.10;;;1.50;;
75894;SDS011;64573;50.328;15.014;2023-07-31T07:52:04;3.50;;;1.33;;
75894;SDS011;64573;50.328;15.014;2023-07-31T07:54:30;3.92;;;1.25;;
75894;SDS011;64573;50.328;15.014;2023-07-31T07:56:56;6.35;;;1.42;;
75894;SDS011;64573;50.328;15.014;2023-07-31T07:59:21;6.38;;;1.40;;
75894;SDS011;64573;50.328;15.014;2023-07-31T08:01:47;4.90;;;1.42;;
75894;SDS011;64573;50.328;15.014;2023-07-31T08:04:12;5.10;;;1.30;;
75894;SDS011;64573;50.328;15.014;2023-07-31T08:06:37;3.03;;;1.40;;
75894;SDS011;64573;50.328;15.014;2023-07-31T08:09:02;4.47;;;1.58;;
75894;SDS011;64573;50.328;15.014;2023-07-31T08:11:31;3.53;;;1.55;;
75894;SDS011;64573;50.328;15.014;2023-07-31T08:13:57;7.63;;;2.08;;
75894;SDS011;64573;50.328;15.014;2023-07-31T08:16:22;5.53;;;1.58;;
75894;SDS011;64573;50.328;15.014;2023-07-31T08:18:48;6.97;;;1.85;;
75894;SDS011;64573;50.328;15.014;2023-07-31T08:21:13;3.97;;;1.38;;
75894;SDS011;64573;50.328;15.014;2023-07-31T08:23:39;4.45;;;1.17;;
75894;SDS011;64573;50.328;15.014;2023-07-31T08:26:04;4.15;;;1.50;;
75894;SDS011;64573;50.328;15.014;2023-07-31T08:28:30;4.45;;;1.40;;
75894;SDS011;64573;50.328;15.014;2023-07-31T08:30:55;3.58;;;1.60;;
75894;SDS011;64573;50.328;15.014;2023-07-31T08:33:20;3.60;;;1.45;;
75894;SDS011;64573;50.328;15.014;2023-07-31T08:35:46;5.28;;;1.63;;
75894;SDS011;64573;50.328;15.014;2023-07-31T08:38:11;3.35;;;1.45;;
75894;SDS011;64573;50.328;15.014;2023-07-31T08:40:37;8.57;;;1.42;;
75894;SDS011;64573;50.328;15.014;2023-07-31T08:43:03;7.68;;;1.77;;
75894;SDS011;64573;50.328;15.014;2023-07-31T08:45:28;3.45;;;1.52;;
75894;SDS011;64573;50.328;15.014;2023-07-31T08:47:55;5.53;;;1.30;;
75894;SDS011;64573;50.328;15.014;2023-07-31T08:50:21;4.55;;;1.20;;
75894;SDS011;64573;50.328;15.014;2023-07-31T08:52:47;3.63;;;1.50;;
75894;SDS011;64573;50.328;15.014;2023-07-31T08:55:14;4.38;;;1.15;;
75894;SDS011;64573;50.328;15.014;2023-07-31T08:57:39;3.85;;;1.30;;
75894;SDS011;64573;50.328;15.014;2023-07-31T09:00:07;3.85;;;1.58;;
75894;SDS011;64573;50.328;15.014;2023-07-31T09:02:38;7.90;;;1.30;;
75894;SDS011;64573;50.328;15.014;2023-07-31T09:05:11;3.70;;;1.17;;
75894;SDS011;64573;50.328;15.014;2023-07-31T09:07:38;3.55;;;1.17;;
75894;SDS011;64573;50.328;15.014;2023-07-31T09:10:05;4.22;;;1.45;;
75894;SDS011;64573;50.328;15.014;2023-07-31T09:12:31;7.68;;;1.25;;
75894;SDS011;64573;50.328;15.014;2023-07-31T09:14:56;7.28;;;1.63;;
75894;SDS011;64573;50.328;15.014;2023-07-31T09:17:33;5.75;;;1.70;;
75894;SDS011;64573;50.328;15.014;2023-07-31T09:20:21;5.68;;;1.52;;
75894;SDS011;64573;50.328;15.014;2023-07-31T09:22:47;2.80;;;1.38;;
75894;SDS011;64573;50.328;15.014;2023-07-31T09:25:14;6.65;;;1.45;;
75894;SDS011;64573;50.328;15.014;2023-07-31T09:30:32;5.93;;;1.98;;
75894;SDS011;64573;50.328;15.014;2023-07-31T09:33:10;5.03;;;1.35;;
75894;SDS011;64573;50.328;15.014;2023-07-31T09:35:35;5.32;;;1.50;;
75894;SDS011;64573;50.328;15.014;2023-07-31T09:38:03;3.65;;;1.20;;
75894;SDS011;64573;50.328;15.014;2023-07-31T09:40:34;3.22;;;1.23;;
75894;SDS011;64573;50.328;15.014;2023-07-31T09:43:04;3.20;;;1.48;;
75894;SDS011;64573;50.328;15.014;2023-07-31T09:45:33;7.50;;;1.33;;
75894;SDS011;64573;50.328;15.014;2023-07-31T09:48:14;3.38;;;1.35;;
75894;SDS011;64573;50.328;15.014;2023-07-31T09:50:47;2.83;;;1.58;;
75894;SDS011;64573;50.328;15.014;2023-07-31T09:53:20;4.85;;;1.58;;
75894;SDS011;64573;50.328;15.014;2023-07-31T09:55:54;4.28;;;1.50;;
75894;SDS011;64573;50.328;15.014;2023-07-31T09:58:21;4.10;;;1.38;;
75894;SDS011;64573;50.328;15.014;2023-07-31T10:00:46;6.22;;;1.40;;
75894;SDS011;64573;50.328;15.014;2023-07-31T10:03:12;4.35;;;1.17;;
75894;SDS011;64573;50.328;15.014;2023-07-31T10:05:42;4.75;;;1.60;;
75894;SDS011;64573;50.328;15.014;2023-07-31T10:08:10;4.07;;;1.48;;
75894;SDS011;64573;50.328;15.014;2023-07-31T10:10:41;1.85;;;1.20;;
75894;SDS011;64573;50.328;15.014;2023-07-31T10:13:07;3.53;;;1.40;;
75894;SDS011;64573;50.328;15.014;2023-07-31T10:15:34;6.18;;;1.70;;
75894;SDS011;64573;50.328;15.014;2023-07-31T10:18:00;5.47;;;1.80;;
75894;SDS011;64573;50.328;15.014;2023-07-31T10:20:27;4.82;;;1.80;;
75894;SDS011;64573;50.328;15.014;2023-07-31T10:22:56;2.90;;;1.35;;
75894;SDS011;64573;50.328;15.014;2023-07-31T10:25:24;2.72;;;1.48;;
75894;SDS011;64573;50.328;15.014;2023-07-31T10:27:51;2.38;;;1.30;;
75894;SDS011;64573;50.328;15.014;2023-07-31T10:30:19;3.15;;;1.30;;
75894;SDS011;64573;50.328;15.014;2023-07-31T10:32:46;3.42;;;1.23;;
75894;SDS011;64573;50.328;15.014;2023-07-31T10:35:15;3.78;;;1.50;;
75894;SDS011;64573;50.328;15.014;2023-07-31T10:37:42;2.97;;;1.42;;
75894;SDS011;64573;50.328;15.014;2023-07-31T10:42:56;4.50;;;1.23;;
75894;SDS011;64573;50.328;15.014;2023-07-31T10:48:01;3.17;;;1.45;;
75894;SDS011;64573;50.328;15.014;2023-07-31T10:50:28;2.40;;;1.52;;
75894;SDS011;64573;50.328;15.014;2023-07-31T10:52:56;5.22;;;1.60;;
75894;SDS011;64573;50.328;15.014;2023-07-31T10:55:32;2.30;;;1.23;;
75894;SDS011;64573;50.328;15.014;2023-07-31T10:58:07;4.47;;;1.50;;
75894;SDS011;64573;50.328;15.014;2023-07-31T11:00:36;2.38;;;1.23;;
75894;SDS011;64573;50.328;15.014;2023-07-31T11:03:06;3.40;;;1.52;;
75894;SDS011;64573;50.328;15.014;2023-07-31T11:05:46;3.45;;;1.40;;
75894;SDS011;64573;50.328;15.014;2023-07-31T11:10:37;3.75;;;1.80;;
75894;SDS011;64573;50.328;15.014;2023-07-31T11:13:04;5.30;;;1.58;;
75894;SDS011;64573;50.328;15.014;2023-07-31T11:15:30;4.60;;;1.40;;
75894;SDS011;64573;50.328;15.014;2023-07-31T11:17:55;2.75;;;1.30;;
75894;SDS011;64573;50.328;15.014;2023-07-31T11:20:23;4.85;;;1.60;;
75894;SDS011;64573;50.328;15.014;2023-07-31T11:22:49;4.32;;;1.58;;
75894;SDS011;64573;50.328;15.014;2023-07-31T11:25:14;4.32;;;1.48;;
75894;SDS011;64573;50.328;15.014;2023-07-31T11:27:39;5.05;;;1.50;;
75894;SDS011;64573;50.328;15.014;2023-07-31T11:30:06;2.38;;;1.35;;
75894;SDS011;64573;50.328;15.014;2023-07-31T11:32:32;5.63;;;1.60;;
75894;SDS011;64573;50.328;15.014;2023-07-31T11:34:57;3.72;;;1.52;;
75894;SDS011;64573;50.328;15.014;2023-07-31T11:37:23;3.80;;;1.52;;
75894;SDS011;64573;50.328;15.014;2023-07-31T11:40:01;3.10;;;1.48;;
75894;SDS011;64573;50.328;15.014;2023-07-31T11:42:28;3.63;;;1.42;;
75894;SDS011;64573;50.328;15.014;2023-07-31T11:44:57;4.25;;;1.70;;
75894;SDS011;64573;50.328;15.014;2023-07-31T11:47:22;6.63;;;1.80;;
75894;SDS011;64573;50.328;15.014;2023-07-31T11:49:47;2.95;;;1.40;;
75894;SDS011;64573;50.328;15.014;2023-07-31T11:52:14;3.53;;;1.48;;
75894;SDS011;64573;50.328;15.014;2023-07-31T11:54:40;6.38;;;1.50;;
75894;SDS011;64573;50.328;15.014;2023-07-31T11:57:06;3.83;;;1.60;;
75894;SDS011;64573;50.328;15.014;2023-07-31T11:59:32;2.00;;;1.27;;
75894;SDS011;64573;50.328;15.014;2023-07-31T12:01:58;3.88;;;1.52;;
75894;SDS011;64573;50.328;15.014;2023-07-31T12:04:23;4.57;;;1.40;;
75894;SDS011;64573;50.328;15.014;2023-07-31T12:06:49;4.07;;;1.70;;
75894;SDS011;64573;50.328;15.014;2023-07-31T12:09:18;3.55;;;1.63;;
75894;SDS011;64573;50.328;15.014;2023-07-31T12:11:44;3.20;;;1.50;;
75894;SDS011;64573;50.328;15.014;2023-07-31T12:14:20;4.25;;;1.50;;
75894;SDS011;64573;50.328;15.014;2023-07-31T12:16:53;3.33;;;1.30;;
75894;SDS011;64573;50.328;15.014;2023-07-31T12:19:25;6.05;;;1.33;;
75894;SDS011;64573;50.328;15.014;2023-07-31T12:21:54;4.22;;;1.30;;
75894;SDS011;64573;50.328;15.014;2023-07-31T12:24:21;5.68;;;1.50;;
75894;SDS011;64573;50.328;15.014;2023-07-31T12:26:47;4.32;;;1.42;;
75894;SDS011;64573;50.328;15.014;2023-07-31T12:29:13;5.15;;;1.92;;
75894;SDS011;64573;50.328;15.014;2023-07-31T12:31:40;2.45;;;1.70;;
75894;SDS011;64573;50.328;15.014;2023-07-31T12:34:14;2.75;;;1.20;;
75894;SDS011;64573;50.328;15.014;2023-07-31T12:36:40;2.08;;;1.15;;
75894;SDS011;64573;50.328;15.014;2023-07-31T12:39:07;2.30;;;1.20;;
75894;SDS011;64573;50.328;15.014;2023-07-31T12:41:33;2.78;;;1.20;;
75894;SDS011;64573;50.328;15.014;2023-07-31T12:43:58;2.40;;;1.13;;
75894;SDS011;64573;50.328;15.014;2023-07-31T12:46:24;2.22;;;1.10;;
75894;SDS011;64573;50.328;15.014;2023-07-31T12:48:49;3.70;;;0.88;;
75894;SDS011;64573;50.328;15.014;2023-07-31T12:51:15;1.85;;;1.02;;
75894;SDS011;64573;50.328;15.014;2023-07-31T12:53:40;2.65;;;1.38;;
75894;SDS011;64573;50.328;15.014;2023-07-31T12:56:05;2.22;;;1.20;;
75894;SDS011;64573;50.328;15.014;2023-07-31T12:58:31;1.45;;;1.05;;
75894;SDS011;64573;50.328;15.014;2023-07-31T13:00:56;2.38;;;1.20;;
75894;SDS011;64573;50.328;15.014;2023-07-31T13:03:22;3.40;;;1.30;;
75894;SDS011;64573;50.328;15.014;2023-07-31T13:05:47;6.05;;;1.30;;
75894;SDS011;64573;50.328;15.014;2023-07-31T13:08:12;3.00;;;1.30;;
75894;SDS011;64573;50.328;15.014;2023-07-31T13:10:40;3.70;;;1.50;;
75894;SDS011;64573;50.328;15.014;2023-07-31T13:13:05;6.35;;;1.80;;
75894;SDS011;64573;50.328;15.014;2023-07-31T13:15:31;6.60;;;1.40;;
75894;SDS011;64573;50.328;15.014;2023-07-31T13:17:56;1.67;;;1.20;;
75894;SDS011;64573;50.328;15.014;2023-07-31T13:20:21;4.60;;;1.35;;
75894;SDS011;64573;50.328;15.014;2023-07-31T13:22:47;2.40;;;1.25;;
75894;SDS011;64573;50.328;15.014;2023-07-31T13:25:12;2.47;;;1.23;;
75894;SDS011;64573;50.328;15.014;2023-07-31T13:27:38;3.40;;;1.38;;
75894;SDS011;64573;50.328;15.014;2023-07-31T13:30:03;3.83;;;1.30;;
75894;SDS011;64573;50.328;15.014;2023-07-31T13:32:29;2.72;;;1.58;;
75894;SDS011;64573;50.328;15.014;2023-07-31T13:34:54;1.98;;;1.20;;
75894;SDS011;64573;50.328;15.014;2023-07-31T13:37:19;4.10;;;1.40;;
75894;SDS011;64573;50.328;15.014;2023-07-31T13:39:45;3.75;;;1.60;;
75894;SDS011;64573;50.328;15.014;2023-07-31T13:42:10;3.55;;;1.40;;
75894;SDS011;64573;50.328;15.014;2023-07-31T13:44:40;4.40;;;1.65;;
75894;SDS011;64573;50.328;15.014;2023-07-31T13:47:07;5.82;;;1.70;;
75894;SDS011;64573;50.328;15.014;2023-07-31T13:49:33;4.63;;;1.30;;
75894;SDS011;64573;50.328;15.014;2023-07-31T13:51:59;6.07;;;1.13;;
75894;SDS011;64573;50.328;15.014;2023-07-31T13:54:25;8.27;;;1.27;;
75894;SDS011;64573;50.328;15.014;2023-07-31T13:56:51;3.88;;;1.25;;
75894;SDS011;64573;50.328;15.014;2023-07-31T13:59:16;2.58;;;0.80;;
75894;SDS011;64573;50.328;15.014;2023-07-31T14:01:45;2.67;;;1.08;;
75894;SDS011;64573;50.328;15.014;2023-07-31T14:04:10;4.18;;;1.50;;
75894;SDS011;64573;50.328;15.014;2023-07-31T14:06:36;2.65;;;1.25;;
75894;SDS011;64573;50.328;15.014;2023-07-31T14:09:01;2.78;;;1.20;;
75894;SDS011;64573;50.328;15.014;2023-07-31T14:11:27;2.85;;;1.40;;
75894;SDS011;64573;50.328;15.014;2023-07-31T14:13:53;3.88;;;1.38;;
75894;SDS011;64573;50.328;15.014;2023-07-31T14:16:18;4.35;;;1.17;;
75894;SDS011;64573;50.328;15.014;2023-07-31T14:18:44;3.10;;;1.20;;
75894;SDS011;64573;50.328;15.014;2023-07-31T14:21:10;6.25;;;1.10;;
75894;SDS011;64573;50.328;15.014;2023-07-31T14:23:36;3.03;;;1.08;;
75894;SDS011;64573;50.328;15.014;2023-07-31T14:26:01;8.27;;;1.50;;
75894;SDS011;64573;50.328;15.014;2023-07-31T14:28:27;3.60;;;1.40;;
75894;SDS011;64573;50.328;15.014;2023-07-31T14:30:52;4.40;;;1.40;;
75894;SDS011;64573;50.328;15.014;2023-07-31T14:33:17;3.25;;;1.25;;
75894;SDS011;64573;50.328;15.014;2023-07-31T14:35:43;4.72;;;1.50;;
75894;SDS011;64573;50.328;15.014;2023-07-31T14:38:08;2.58;;;1.38;;
75894;SDS011;64573;50.328;15.014;2023-07-31T14:40:33;2.20;;;1.00;;
75894;SDS011;64573;50.328;15.014;2023-07-31T14:42:59;3.72;;;1.17;;
75894;SDS011;64573;50.328;15.014;2023-07-31T14:45:24;3.88;;;1.13;;
75894;SDS011;64573;50.328;15.014;2023-07-31T14:47:50;2.42;;;0.95;;